Have a Safe July 4th! 

Flight Track Log - Related Links

Times and Time Zones

All times are in EDT time to prevent confusion due to time zone crossing. See the DAL268 flight status page for this flight to view local times or setup timezone preferences in your user account.

Time Position Orientation Groundspeed Altitude Reporting Facility
EDT Latitude Longitude Course Direction KTS MPH feet Rate Location/Type
Fri 12:04:11 AM 40.8833 -71.7675 62° Northeast 507 583 25,600  Level Boston Center
Fri 12:05:11 AM 40.9550 -71.5908 62° Northeast 522 601 26,700 1,000 Climbing Boston Center
Fri 12:06:11 AM 41.0286 -71.4192 60° Northeast 537 618 27,600 900 Climbing Boston Center
Fri 12:07:11 AM 41.1019 -71.2419 61° Northeast 542 624 28,500 950 Climbing Boston Center
Fri 12:08:11 AM 41.1769 -71.0583 61° Northeast 549 632 29,500 1,050 Climbing Boston Center
Fri 12:09:11 AM 41.2536 -70.8772 61° Northeast 554 638 30,600 1,050 Climbing Boston Center
Fri 12:10:11 AM 41.3219 -70.6961 63° Northeast 549 632 31,600 950 Climbing Boston Center
Fri 12:11:11 AM 41.3981 -70.5142 61° Northeast 549 632 32,500 650 Climbing Boston Center
Fri 12:12:11 AM 41.4656 -70.3208 65° Northeast 555 639 32,900 200 Climbing Boston Center
Fri 12:13:11 AM 41.5411 -70.1381 61° Northeast 560 644 32,900  Level Boston Center
Fri 12:14:11 AM 41.6103 -69.9550 63° Northeast 560 644 32,900  Level Boston Center
Fri 12:15:11 AM 41.6875 -69.7742 60° Northeast 555 639 32,900  Level Boston Center
Fri 12:16:11 AM 41.7558 -69.5903 63° Northeast 555 639 32,900  Level Boston Center
Fri 12:17:11 AM 41.8306 -69.4114 61° Northeast 550 633 32,900  Level Boston Center
Fri 12:18:11 AM 41.9089 -69.2344 59° Northeast 545 627 32,900  Level Boston Center
Fri 12:20:00 AM 42.0167 -68.9167 65° Northeast 550 633 32,900  Level Moncton Center
Fri 12:22:00 AM 42.1207 -68.6001 67° East  Level FlightAware Approximate
Fri 12:24:00 AM 42.2833 -68.1667 67° East 550 633 32,900  Level Moncton Center
Fri 12:25:00 AM 42.3620 -67.9975 58° Northeast  Level Estimated
Fri 12:28:00 AM 42.5833 -67.4167 59° Northeast 560 644 33,000  Level Moncton Center
Fri 12:29:00 AM 42.5227 -67.3107 67° East  Level FlightAware Approximate
Fri 12:29:00 AM 42.6500 -67.2167 66° East 560 644 33,000  Level Moncton Center
Fri 12:30:00 AM 42.7000 -67.0333 70° East 560 644 33,000  Level Moncton Center
Fri 12:31:00 AM 42.7667 -66.8333 66° East 560 644 33,000  Level Moncton Center
Fri 12:32:00 AM 42.9060 -66.8011 58° Northeast  Level Estimated
Fri 12:32:00 AM 42.8500 -66.6333 60° Northeast 570 656 33,000  Level Moncton Center
Fri 12:33:00 AM 42.9827 -66.6285 59° Northeast  Level Estimated
Fri 12:33:00 AM 42.9167 -66.4500 64° Northeast 560 644 33,000  Level Moncton Center
Fri 12:34:00 AM 42.9833 -66.2500 65° Northeast 560 644 33,000  Level Moncton Center
Fri 12:35:00 AM 43.0333 -66.0667 69° East 560 644 33,000  Level Moncton Center
Fri 12:36:00 AM 43.1000 -65.8667 65° Northeast 560 644 33,000  Level Moncton Center
Fri 12:37:00 AM 43.1833 -65.6833 58° Northeast 570 656 33,000  Level Moncton Center
Fri 12:38:00 AM 43.2500 -65.4667 67° East 560 644 33,000  Level Moncton Center
Fri 12:39:00 AM 43.3167 -65.3000 61° Northeast 560 644 33,000  Level Moncton Center
Fri 12:40:00 AM 43.3833 -65.0833 67° East 560 644 33,000  Level Moncton Center
Fri 12:41:00 AM 43.4333 -64.8833 71° East 560 644 33,000  Level Moncton Center
Fri 12:42:00 AM 43.5000 -64.7000 63° Northeast 560 644 33,000  Level Moncton Center
Fri 12:43:00 AM 43.5667 -64.4833 67° East 560 644 33,000  Level Moncton Center
Fri 12:44:00 AM 43.6333 -64.2833 65° Northeast 560 644 33,000  Level Moncton Center
Fri 12:45:00 AM 43.7000 -64.1000 63° Northeast 570 656 33,000  Level Moncton Center
Fri 12:47:13 AM 43.8333 -63.6667 67° East 570 656 33,000  Level Gander Center
Fri 12:48:13 AM 43.9000 -63.4500 67° East 570 656 33,000  Level Gander Center
Fri 12:49:00 AM 43.9500 -63.3000 65° Northeast 570 656 33,000  Level Moncton Center
Fri 12:50:00 AM 44.0167 -63.1000 65° Northeast 570 656 33,000  Level Moncton Center
Fri 12:51:00 AM 44.0833 -62.9000 65° Northeast 560 644 33,000  Level Moncton Center
Fri 12:52:00 AM 44.1259 -62.7029 73° East  Level FlightAware Approximate
Fri 12:59:00 AM 44.4833 -61.3447 67° East  Level FlightAware Approximate
Fri 01:00:00 AM 44.5401 -61.1533 67° East  Level FlightAware Approximate
Fri 01:00:17 AM 44.6070 -61.2090 67° East 566 651 33,000  Level FlightAware ADS-B
Fri 01:00:53 AM 44.6380 -61.1050 67° East 566 651 33,000  Level FlightAware ADS-B
Fri 01:01:31 AM 44.6710 -60.9950 67° East 566 651 33,000  Level FlightAware ADS-B
Fri 01:02:22 AM 44.7740 -60.5840 70° East 571 657 33,000  Level FlightAware ADS-B
Fri 01:03:02 AM 44.8140 -60.4390 69° East 571 657 33,000  Level FlightAware ADS-B
Fri 01:03:44 AM 44.8540 -60.2940 69° East 572 658 33,000  Level FlightAware ADS-B
Fri 01:04:28 AM 44.8950 -60.1480 68° East 571 657 33,000  Level FlightAware ADS-B
Fri 01:05:08 AM 44.9340 -60.0060 69° East 569 655 33,000  Level FlightAware ADS-B
Fri 01:05:52 AM 44.9740 -59.8570 69° East 568 654 33,000  Level FlightAware ADS-B
Fri 01:06:32 AM 45.0130 -59.7120 69° East 566 651 33,000  Level FlightAware ADS-B
Fri 01:07:15 AM 45.0520 -59.5670 69° East 566 651 33,000  Level FlightAware ADS-B
Fri 01:07:57 AM 45.0910 -59.4210 69° East 566 651 33,000  Level FlightAware ADS-B
Fri 01:08:41 AM 45.1320 -59.2650 70° East 568 654 33,000  Level FlightAware ADS-B
Fri 01:09:21 AM 45.1680 -59.1300 69° East 568 654 33,000  Level FlightAware ADS-B
Fri 01:10:03 AM 45.2070 -58.9830 69° East 569 655 33,000  Level FlightAware ADS-B
Fri 01:10:43 AM 45.2440 -58.8400 70° East 569 655 33,000  Level FlightAware ADS-B
Fri 01:11:33 AM 45.2890 -58.6640 70° East 569 655 33,000  Level FlightAware ADS-B
Fri 01:12:17 AM 45.3280 -58.5140 70° East 570 656 33,000  Level FlightAware ADS-B
Fri 01:12:57 AM 45.3640 -58.3730 70° East 570 656 33,000  Level FlightAware ADS-B
Fri 01:13:41 AM 45.4040 -58.2150 70° East 570 656 33,000  Level FlightAware ADS-B
Fri 01:14:23 AM 45.4420 -58.0660 70° East 571 657 33,000  Level FlightAware ADS-B
Fri 01:15:05 AM 45.4780 -57.9210 70° East 571 657 33,000  Level FlightAware ADS-B
Fri 01:15:45 AM 45.5130 -57.7830 70° East 571 657 33,000  Level FlightAware ADS-B
Fri 01:16:59 AM 45.5740 -57.5380 70° East 572 658 33,000  Level FlightAware ADS-B
Fri 01:17:35 AM 45.6020 -57.4290 70° East 572 658 33,000  Level FlightAware ADS-B
Fri 01:18:24 AM 45.6400 -57.2810 70° East 572 658 33,000  Level FlightAware ADS-B
Fri 01:19:01 AM 45.6680 -57.1690 70° East 572 658 33,000  Level FlightAware ADS-B
Fri 01:19:44 AM 45.7220 -56.9270 72° East 574 661 33,000  Level FlightAware ADS-B
Fri 01:20:28 AM 45.7590 -56.7690 71° East 576 663 33,000  Level FlightAware ADS-B
Fri 01:21:06 AM 45.7920 -56.6320 71° East 577 664 33,000  Level FlightAware ADS-B
Fri 01:21:50 AM 45.8270 -56.4680 73° East 577 664 33,000  Level FlightAware ADS-B
Fri 01:22:35 AM 45.8600 -56.3140 73° East 578 665 33,000  Level FlightAware ADS-B
Fri 01:23:14 AM 45.8910 -56.1630 74° East 578 665 33,000  Level FlightAware ADS-B
Fri 01:23:58 AM 45.9250 -56.0020 73° East 577 664 33,000  Level FlightAware ADS-B
Fri 01:24:38 AM 45.9530 -55.8710 73° East 577 664 33,000  Level FlightAware ADS-B
Fri 01:25:22 AM 45.9890 -55.6930 74° East 579 666 33,000  Level FlightAware ADS-B
Fri 01:26:04 AM 46.0200 -55.5460 73° East 580 667 33,000  Level FlightAware ADS-B
Fri 01:26:44 AM 46.0520 -55.3910 73° East 582 670 33,000  Level FlightAware ADS-B
Fri 01:27:24 AM 46.0820 -55.2380 74° East 583 671 33,000  Level FlightAware ADS-B
Fri 01:28:04 AM 46.1120 -55.0930 73° East 581 669 33,000  Level FlightAware ADS-B
Fri 01:28:49 AM 46.1450 -54.9220 74° East 581 669 33,000  Level FlightAware ADS-B
Fri 01:29:30 AM 46.1740 -54.7770 74° East 582 670 33,000  Level FlightAware ADS-B
Fri 01:30:14 AM 46.2070 -54.6080 74° East 584 672 33,000  Level FlightAware ADS-B
Fri 01:30:58 AM 46.2390 -54.4430 74° East 586 674 33,000  Level FlightAware ADS-B
Fri 01:31:38 AM 46.2680 -54.2920 74° East 589 678 33,000  Level FlightAware ADS-B
Fri 01:32:18 AM 46.2980 -54.1360 74° East 591 680 33,000  Level FlightAware ADS-B
Fri 01:33:04 AM 46.3300 -53.9650 75° East 593 682 33,000  Level FlightAware ADS-B
Fri 01:33:42 AM 46.3580 -53.8160 75° East 594 684 33,000  Level FlightAware ADS-B
Fri 01:34:28 AM 46.3910 -53.6400 75° East 592 681 33,000  Level FlightAware ADS-B
Fri 01:35:08 AM 46.4180 -53.4910 75° East 589 678 33,000  Level FlightAware ADS-B
Fri 01:35:50 AM 46.4480 -53.3270 75° East 587 676 33,000  Level FlightAware ADS-B
Fri 01:36:34 AM 46.4780 -53.1680 75° East 583 671 33,000  Level FlightAware ADS-B
Fri 01:37:14 AM 46.5060 -53.0130 75° East 582 670 33,000  Level FlightAware ADS-B
Fri 01:37:59 AM 46.5340 -52.8510 76° East 581 669 33,000  Level FlightAware ADS-B
Fri 01:38:34 AM 46.5590 -52.7110 75° East 581 669 33,000  Level FlightAware ADS-B
Fri 01:39:22 AM 46.5910 -52.5260 76° East 582 670 33,000  Level FlightAware ADS-B
Fri 01:40:02 AM 46.6170 -52.3740 76° East 583 671 33,000  Level FlightAware ADS-B
Fri 01:40:43 AM 46.6430 -52.2220 76° East 583 671 33,000  Level FlightAware ADS-B
Fri 01:41:28 AM 46.6730 -52.0470 76° East 582 670 33,000  Level FlightAware ADS-B
Fri 01:42:09 AM 46.6990 -51.8950 76° East 583 671 33,000  Level FlightAware ADS-B
Fri 01:42:50 AM 46.7250 -51.7380 76° East 586 674 33,000  Level FlightAware ADS-B
Fri 01:43:34 AM 46.7530 -51.5690 76° East 588 677 33,000  Level FlightAware ADS-B
Fri 01:44:14 AM 46.7790 -51.4110 76° East 590 679 33,000  Level FlightAware ADS-B
Fri 01:44:59 AM 46.8080 -51.2370 76° East 591 680 33,000  Level FlightAware ADS-B
Fri 01:45:34 AM 46.8270 -51.1130 77° East 591 680 33,000  Level FlightAware ADS-B
Fri 01:46:19 AM 46.8540 -50.9570 76° East 592 681 33,000  Level FlightAware ADS-B
Fri 01:46:56 AM 46.8750 -50.8350 76° East 592 681 33,000  Level FlightAware ADS-B
Fri 01:47:44 AM 46.9020 -50.6760 76° East 592 681 33,000  Level FlightAware ADS-B
Fri 01:48:22 AM 46.9230 -50.5500 76° East 592 681 33,000  Level FlightAware ADS-B
Fri 01:49:10 AM 46.9500 -50.3920 76° East 592 681 33,000  Level FlightAware ADS-B
Fri 01:49:46 AM 46.9710 -50.2720 76° East 592 681 33,000  Level FlightAware ADS-B
Fri 01:50:35 AM 46.9980 -50.1100 76° East 592 681 33,000  Level FlightAware ADS-B
Fri 01:51:00 AM 47.0000 -50.0000 70° East 598 688 33,000  Level ETMS Enhanced Traffic Management System
Fri 01:51:11 AM 47.0180 -49.9910 76° East 592 681 33,000  Level FlightAware ADS-B
Fri 01:51:49 AM 47.0400 -49.8650 76° East 592 681 33,000  Level FlightAware ADS-B
Fri 01:52:13 AM 47.0833 -49.5000 70° East 590 679 33,000  Level Gander Center
Fri 01:52:37 AM 47.0670 -49.7060 76° East 592 681 33,000  Level FlightAware ADS-B
Fri 01:53:13 AM 47.0870 -49.5860 76° East 592 681 33,000  Level FlightAware ADS-B
Fri 01:53:13 AM 47.1500 -49.2667 67° East 600 690 33,000  Level Gander Center
Fri 01:54:01 AM 47.1140 -49.4270 76° East 592 681 33,000  Level FlightAware ADS-B
Fri 01:54:13 AM 47.2000 -49.0333 72° East 600 690 33,000  Level Gander Center
Fri 01:54:37 AM 47.1340 -49.3080 76° East 592 681 33,000  Level FlightAware ADS-B
Fri 01:55:13 AM 47.2667 -48.8167 66° East 600 690 33,000  Level Gander Center
Fri 01:55:26 AM 47.1620 -49.1450 76° East 592 681 33,000  Level FlightAware ADS-B
Fri 01:56:13 AM 47.3000 -48.5833 78° East 590 679 33,000  Level Gander Center
Fri 01:57:13 AM 47.3667 -48.3500 67° East 590 679 33,000  Level Gander Center
Fri 01:58:13 AM 47.4167 -48.1333 71° East 590 679 33,000  Level Gander Center
Fri 01:59:13 AM 47.4833 -47.9000 67° East 590 679 33,000  Level Gander Center
Fri 02:00:13 AM 47.5167 -47.6833 77° East 580 667 33,000  Level Gander Center
Fri 02:01:13 AM 47.5667 -47.4500 72° East 590 679 33,000  Level Gander Center
Fri 02:02:13 AM 47.6333 -47.2000 68° East 590 679 33,000  Level Gander Center
Fri 02:05:13 AM 47.7667 -46.5333 73° East 580 667 33,000  Level Gander Center
Fri 02:07:00 AM 47.8466 -46.1512 73° East  Level FlightAware Approximate
Fri 02:14:00 AM 48.1424 -44.6679 73° East  Level FlightAware Approximate
Fri 02:15:00 AM 48.1831 -44.4546 74° East  Level FlightAware Approximate
Fri 02:16:00 AM 48.2234 -44.2410 74° East  Level FlightAware Approximate
Fri 02:17:00 AM 48.2634 -44.0270 74° East  Level FlightAware Approximate
Fri 02:18:00 AM 48.3029 -43.8128 74° East  Level FlightAware Approximate
Fri 02:19:00 AM 48.3420 -43.5981 75° East  Level FlightAware Approximate
Fri 02:20:00 AM 48.3807 -43.3832 75° East  Level FlightAware Approximate
Fri 02:21:00 AM 48.4190 -43.1679 75° East  Level FlightAware Approximate
Fri 02:22:00 AM 48.4569 -42.9524 75° East  Level FlightAware Approximate
Fri 02:23:00 AM 48.4944 -42.7364 75° East  Level FlightAware Approximate
Fri 02:24:00 AM 48.5315 -42.5202 75° East  Level FlightAware Approximate
Fri 02:25:00 AM 48.5682 -42.3037 76° East  Level FlightAware Approximate
Fri 02:26:00 AM 48.6045 -42.0868 76° East  Level FlightAware Approximate
Fri 02:27:00 AM 48.6404 -41.8696 76° East  Level FlightAware Approximate
Fri 02:28:00 AM 48.6758 -41.6522 76° East  Level FlightAware Approximate
Fri 02:29:00 AM 48.7109 -41.4344 76° East  Level FlightAware Approximate
Fri 02:30:00 AM 48.7456 -41.2163 76° East  Level FlightAware Approximate
Fri 02:31:00 AM 48.7798 -40.9979 77° East  Level FlightAware Approximate
Fri 02:32:00 AM 48.8136 -40.7793 77° East  Level FlightAware Approximate
Fri 02:33:00 AM 48.8470 -40.5603 77° East  Level FlightAware Approximate
Fri 02:34:00 AM 48.8800 -40.3410 77° East  Level FlightAware Approximate
Fri 02:35:00 AM 48.9126 -40.1215 77° East  Level FlightAware Approximate
Fri 02:36:00 AM 48.9448 -39.9016 77° East  Level FlightAware Approximate
Fri 02:37:00 AM 48.9765 -39.6815 78° East  Level FlightAware Approximate
Fri 02:38:00 AM 49.0079 -39.4611 78° East  Level FlightAware Approximate
Fri 02:39:00 AM 49.0388 -39.2405 78° East  Level FlightAware Approximate
Fri 02:39:00 AM 49.0000 -40.0000 77° East 537 618 33,000  Level ETMS Enhanced Traffic Management System
Fri 02:40:00 AM 49.0693 -39.0195 78° East  Level FlightAware Approximate
Fri 02:41:00 AM 49.0993 -38.7983 78° East  Level FlightAware Approximate
Fri 02:42:00 AM 49.1290 -38.5768 78° East  Level FlightAware Approximate
Fri 02:43:00 AM 49.1582 -38.3551 79° East  Level FlightAware Approximate
Fri 02:44:00 AM 49.1870 -38.1331 79° East  Level FlightAware Approximate
Fri 02:45:00 AM 49.3578 -37.3157 79° East 537 618 33,000  Level FlightAware Transoceanic
Fri 02:46:00 AM 49.3848 -37.0904 80° East 537 618 33,000  Level FlightAware Transoceanic
Fri 02:47:00 AM 49.4113 -36.8647 80° East 537 618 33,000  Level FlightAware Transoceanic
Fri 02:48:00 AM 49.4374 -36.6388 80° East 537 618 33,000  Level FlightAware Transoceanic
Fri 02:49:00 AM 49.4631 -36.4127 80° East 537 618 33,000  Level FlightAware Transoceanic
Fri 02:50:00 AM 49.4883 -36.1864 80° East 537 618 33,000  Level FlightAware Transoceanic
Fri 02:51:00 AM 49.5131 -35.9598 81° East 537 618 33,000  Level FlightAware Transoceanic
Fri 02:52:00 AM 49.5375 -35.7330 81° East 537 618 33,000  Level FlightAware Transoceanic
Fri 02:53:00 AM 49.5614 -35.5059 81° East 537 618 33,000  Level FlightAware Transoceanic
Fri 02:54:00 AM 49.5848 -35.2787 81° East 537 618 33,000  Level FlightAware Transoceanic
Fri 02:55:00 AM 49.6078 -35.0512 81° East 537 618 33,000  Level FlightAware Transoceanic
Fri 02:56:00 AM 49.6304 -34.8235 81° East 537 618 33,000  Level FlightAware Transoceanic
Fri 02:57:00 AM 49.6525 -34.5956 82° East 537 618 33,000  Level FlightAware Transoceanic
Fri 02:58:00 AM 49.6742 -34.3675 82° East 537 618 33,000  Level FlightAware Transoceanic
Fri 02:59:00 AM 49.6954 -34.1393 82° East 537 618 33,000  Level FlightAware Transoceanic
Fri 03:00:00 AM 49.7162 -33.9108 82° East 537 618 33,000  Level FlightAware Transoceanic
Fri 03:01:00 AM 49.7365 -33.6821 82° East 537 618 33,000  Level FlightAware Transoceanic
Fri 03:02:00 AM 49.7564 -33.4532 82° East 537 618 33,000  Level FlightAware Transoceanic
Fri 03:03:00 AM 49.7758 -33.2241 83° East 537 618 33,000  Level FlightAware Transoceanic
Fri 03:04:00 AM 49.7948 -32.9949 83° East 537 618 33,000  Level FlightAware Transoceanic
Fri 03:05:00 AM 49.8133 -32.7654 83° East 537 618 33,000  Level FlightAware Transoceanic
Fri 03:06:00 AM 49.8314 -32.5359 83° East 537 618 33,000  Level FlightAware Transoceanic
Fri 03:07:00 AM 49.8490 -32.3061 83° East 537 618 33,000  Level FlightAware Transoceanic
Fri 03:08:00 AM 49.8661 -32.0761 83° East 537 618 33,000  Level FlightAware Transoceanic
Fri 03:09:00 AM 49.8828 -31.8461 84° East 537 618 33,000  Level FlightAware Transoceanic
Fri 03:10:00 AM 49.8991 -31.6158 84° East 537 618 33,000  Level FlightAware Transoceanic
Fri 03:11:00 AM 49.9149 -31.3854 84° East 537 618 33,000  Level FlightAware Transoceanic
Fri 03:12:00 AM 49.9302 -31.1549 84° East 537 618 33,000  Level FlightAware Transoceanic
Fri 03:13:00 AM 49.9451 -30.9242 84° East 537 618 33,000  Level FlightAware Transoceanic
Fri 03:14:00 AM 49.9595 -30.6933 85° East 537 618 33,000  Level FlightAware Transoceanic
Fri 03:15:00 AM 49.9735 -30.4623 85° East 537 618 33,000  Level FlightAware Transoceanic
Fri 03:16:00 AM 49.9870 -30.2312 85° East 537 618 33,000 -69 Level FlightAware Transoceanic
Fri 03:17:00 AM 49.9368 -30.0148 110° East  Level FlightAware Approximate
Fri 03:18:00 AM 49.9336 -29.9948 85° East  Level FlightAware Approximate
Fri 03:19:00 AM 49.9454 -29.7656 85° East  Level FlightAware Approximate
Fri 03:20:00 AM 49.9568 -29.5364 86° East  Level FlightAware Approximate
Fri 03:21:00 AM 49.9677 -29.3070 86° East  Level FlightAware Approximate
Fri 03:22:00 AM 49.9781 -29.0775 86° East  Level FlightAware Approximate
Fri 03:23:00 AM 49.9881 -28.8479 86° East  Level FlightAware Approximate
Fri 03:24:00 AM 49.9976 -28.6182 86° East  Level FlightAware Approximate
Fri 03:25:00 AM 50.0067 -28.3884 86° East  Level FlightAware Approximate
Fri 03:26:00 AM 50.0153 -28.1586 87° East  Level FlightAware Approximate
Fri 03:27:00 AM 50.0235 -27.9286 87° East  Level FlightAware Approximate
Fri 03:28:00 AM 50.0312 -27.6986 87° East  Level FlightAware Approximate
Fri 03:29:00 AM 50.0385 -27.4685 87° East  Level FlightAware Approximate
Fri 03:30:00 AM 50.0453 -27.2384 87° East  Level FlightAware Approximate
Fri 03:31:00 AM 50.0517 -27.0082 87° East  Level FlightAware Approximate
Fri 03:32:00 AM 50.0576 -26.7779 88° East  Level FlightAware Approximate
Fri 03:33:00 AM 50.0630 -26.5476 88° East  Level FlightAware Approximate
Fri 03:34:00 AM 50.0680 -26.3172 88° East  Level FlightAware Approximate
Fri 03:35:00 AM 50.0726 -26.0868 88° East  Level FlightAware Approximate
Fri 03:36:00 AM 50.0766 -25.8563 88° East  Level FlightAware Approximate
Fri 03:37:00 AM 50.0802 -25.6258 89° East  Level FlightAware Approximate
Fri 03:38:00 AM 50.0834 -25.3953 89° East  Level FlightAware Approximate
Fri 03:39:00 AM 50.0861 -25.1647 89° East  Level FlightAware Approximate
Fri 03:40:00 AM 50.0884 -24.9341 89° East  Level FlightAware Approximate
Fri 03:41:00 AM 50.0902 -24.7035 89° East  Level FlightAware Approximate
Fri 03:42:00 AM 50.0915 -24.4729 89° East  Level FlightAware Approximate
Fri 03:43:00 AM 50.0924 -24.2422 90° East  Level FlightAware Approximate
Fri 03:44:00 AM 50.0928 -24.0116 90° East  Level FlightAware Approximate
Fri 03:45:00 AM 50.0928 -23.7810 90° East  Level FlightAware Approximate
Fri 03:46:00 AM 50.0923 -23.5503 90° East  Level FlightAware Approximate
Fri 03:47:00 AM 50.0914 -23.3197 90° East  Level FlightAware Approximate
Fri 03:48:00 AM 50.0900 -23.0891 90° East  Level FlightAware Approximate
Fri 03:49:00 AM 50.0881 -22.8585 91° East  Level FlightAware Approximate
Fri 03:50:00 AM 50.0858 -22.6279 91° East  Level FlightAware Approximate
Fri 03:51:00 AM 50.0830 -22.3973 91° East  Level FlightAware Approximate
Fri 03:52:00 AM 50.0798 -22.1668 91° East  Level FlightAware Approximate
Fri 03:53:00 AM 50.0761 -21.9363 91° East  Level FlightAware Approximate
Fri 03:54:00 AM 50.0719 -21.7058 92° East  Level FlightAware Approximate
Fri 03:55:00 AM 50.0673 -21.4754 92° East  Level FlightAware Approximate
Fri 03:56:00 AM 50.0623 -21.2450 92° East  Level FlightAware Approximate
Fri 03:57:00 AM 50.0568 -21.0147 92° East  Level FlightAware Approximate
Fri 03:58:00 AM 50.0508 -20.7844 92° East  Level FlightAware Approximate
Fri 03:59:00 AM 50.0444 -20.5542 92° East  Level FlightAware Approximate
Fri 04:00:00 AM 50.0375 -20.3241 93° East  Level FlightAware Approximate
Fri 04:01:00 AM 50.0302 -20.0940 93° East  Level FlightAware Approximate
Fri 04:02:00 AM 50.0224 -19.8640 93° East  Level FlightAware Approximate
Fri 04:03:00 AM 50.0141 -19.6341 93° East  Level FlightAware Approximate
Fri 04:04:00 AM 50.0055 -19.4042 93° East  Level FlightAware Approximate
Fri 04:05:00 AM 49.9963 -19.1745 93° East  Level FlightAware Approximate
Fri 04:06:00 AM 49.9867 -18.9448 94° East  Level FlightAware Approximate
Fri 04:07:00 AM 49.9767 -18.7152 94° East  Level FlightAware Approximate
Fri 04:08:00 AM 49.9661 -18.4857 94° East  Level FlightAware Approximate
Fri 04:09:00 AM 49.9552 -18.2564 94° East  Level FlightAware Approximate
Fri 04:10:00 AM 49.9438 -18.0271 94° East  Level FlightAware Approximate
Fri 04:11:00 AM 49.9319 -17.7979 95° East  Level FlightAware Approximate
Fri 04:12:00 AM 49.9196 -17.5689 95° East  Level FlightAware Approximate
Fri 04:13:00 AM 49.9068 -17.3400 95° East  Level FlightAware Approximate
Fri 04:14:00 AM 49.8936 -17.1112 95° East  Level FlightAware Approximate
Fri 04:15:00 AM 49.8799 -16.8825 95° East  Level FlightAware Approximate
Fri 04:16:00 AM 49.8658 -16.6540 95° East  Level FlightAware Approximate
Fri 04:17:00 AM 49.8513 -16.4256 96° East  Level FlightAware Approximate
Fri 04:18:00 AM 49.8363 -16.1973 96° East  Level FlightAware Approximate
Fri 04:19:00 AM 49.8208 -15.9692 96° East  Level FlightAware Approximate
Fri 04:20:00 AM 49.8049 -15.7412 96° East  Level FlightAware Approximate
Fri 04:21:00 AM 49.7885 -15.5134 96° East  Level FlightAware Approximate
Fri 04:22:00 AM 49.7717 -15.2857 96° East  Level FlightAware Approximate
Fri 04:23:00 AM 49.7545 -15.0582 97° East  Level FlightAware Approximate
Fri 04:24:00 AM 49.7365 -14.8309 97° East  Level FlightAware Approximate
Fri 04:25:00 AM 49.7180 -14.6038 97° East  Level FlightAware Approximate
Fri 04:26:00 AM 49.6991 -14.3768 97° East  Level FlightAware Approximate
Fri 04:27:00 AM 49.6797 -14.1501 97° East  Level FlightAware Approximate
Fri 04:28:00 AM 49.6599 -13.9235 98° East  Level FlightAware Approximate
Fri 04:29:00 AM 49.6397 -13.6971 98° East  Level FlightAware Approximate
Fri 04:30:00 AM 49.6190 -13.4710 98° East  Level FlightAware Approximate
Fri 04:31:00 AM 49.5979 -13.2450 98° East  Level FlightAware Approximate
Fri 04:32:00 AM 49.5763 -13.0191 98° East  Level FlightAware Approximate
Fri 04:33:00 AM 49.5543 -12.7935 98° East  Level FlightAware Approximate
Fri 04:34:00 AM 49.5319 -12.5681 98° East  Level FlightAware Approximate
Fri 04:35:00 AM 49.5103 -12.3426 98° East  Level FlightAware Approximate
Fri 04:36:00 AM 49.4882 -12.1173 98° East  Level FlightAware Approximate
Fri 04:37:00 AM 49.4657 -11.8923 99° East  Level FlightAware Approximate
Fri 04:38:00 AM 49.4428 -11.6674 99° East  Level FlightAware Approximate
Fri 04:39:00 AM 49.4194 -11.4427 99° East  Level FlightAware Approximate
Fri 04:40:00 AM 49.3954 -11.2183 99° East  Level FlightAware Approximate
Fri 04:41:00 AM 49.3710 -10.9942 99° East  Level FlightAware Approximate
Fri 04:42:00 AM 49.3461 -10.7702 100° East  Level FlightAware Approximate
Fri 04:43:00 AM 49.3208 -10.5465 100° East  Level FlightAware Approximate
Fri 04:44:00 AM 49.2950 -10.3230 100° East  Level FlightAware Approximate
Fri 04:45:00 AM 49.2688 -10.0998 100° East  Level FlightAware Approximate
Fri 04:46:00 AM 49.2422 -9.8768 100° East  Level FlightAware Approximate
Fri 04:47:00 AM 49.2152 -9.6540 100° East  Level FlightAware Approximate
Fri 04:48:00 AM 49.1877 -9.4315 101° East  Level FlightAware Approximate
Fri 04:49:00 AM 49.1598 -9.2092 101° East  Level FlightAware Approximate
Fri 04:50:00 AM 49.1315 -8.9872 101° East  Level FlightAware Approximate
Fri 04:51:00 AM 49.1027 -8.7654 101° East  Level FlightAware Approximate
Fri 04:52:00 AM 49.0736 -8.5439 101° East  Level FlightAware Approximate
Fri 04:53:00 AM 49.0440 -8.3227 101° East  Level FlightAware Approximate
Fri 04:54:00 AM 49.0140 -8.1017 102° East  Level FlightAware Approximate
Fri 04:55:00 AM 48.9695 -7.8876 112° Southeast  Level FlightAware Approximate
Fri 04:56:00 AM 48.9127 -7.6796 112° Southeast  Level FlightAware Approximate
Fri 04:57:00 AM 48.8604 -7.4691 110° East  Level FlightAware Approximate
Fri 04:58:00 AM 48.8092 -7.2582 110° East  Level FlightAware Approximate
Fri 04:59:00 AM 48.7576 -7.0478 110° East  Level FlightAware Approximate
Fri 05:00:00 AM 48.7056 -6.8377 110° East  Level FlightAware Approximate
Fri 05:01:00 AM 48.6532 -6.6282 111° Southeast  Level FlightAware Approximate
Fri 05:02:00 AM 48.6004 -6.4190 111° Southeast  Level FlightAware Approximate
Fri 05:03:00 AM 48.5473 -6.2103 111° Southeast  Level FlightAware Approximate
Fri 05:04:00 AM 48.4938 -6.0020 111° Southeast  Level FlightAware Approximate
Fri 05:05:00 AM 48.4399 -5.7942 111° Southeast  Level FlightAware Approximate
Fri 05:06:00 AM 48.3857 -5.5868 111° Southeast  Level FlightAware Approximate
Fri 05:07:00 AM 48.3310 -5.3798 112° Southeast  Level FlightAware Approximate
Fri 05:08:00 AM 48.2760 -5.1733 112° Southeast  Level FlightAware Approximate
Fri 05:09:00 AM 48.2206 -4.9673 112° Southeast  Level FlightAware Approximate
Fri 05:10:00 AM 48.1649 -4.7617 112° Southeast  Level FlightAware Approximate
Fri 05:11:00 AM 48.1088 -4.5565 112° Southeast  Level FlightAware Approximate
Fri 05:12:00 AM 48.0523 -4.3518 112° Southeast  Level FlightAware Approximate
Fri 05:13:00 AM 47.9951 -4.1478 113° Southeast  Level FlightAware Approximate
Fri 05:14:00 AM 47.9373 -3.9443 113° Southeast  Level FlightAware Approximate
Fri 05:15:00 AM 47.8791 -3.7414 113° Southeast  Level FlightAware Approximate
Fri 05:16:00 AM 47.8206 -3.5389 113° Southeast  Level FlightAware Approximate
Fri 05:17:00 AM 47.7617 -3.3368 113° Southeast  Level FlightAware Approximate
Fri 05:18:00 AM 47.7026 -3.1351 113° Southeast  Level FlightAware Approximate
Fri 05:19:00 AM 47.6433 -2.9338 114° Southeast  Level FlightAware Approximate
Fri 05:20:00 AM 47.5837 -2.7329 114° Southeast  Level FlightAware Approximate
Fri 05:21:00 AM 47.5238 -2.5324 114° Southeast  Level FlightAware Approximate
Fri 05:22:00 AM 47.4635 -2.3324 114° Southeast  Level FlightAware Approximate
Fri 05:23:00 AM 47.4029 -2.1329 114° Southeast  Level FlightAware Approximate
Fri 05:24:00 AM 47.3419 -1.9338 114° Southeast  Level FlightAware Approximate
Fri 05:25:00 AM 47.2806 -1.7352 114° Southeast  Level FlightAware Approximate
Fri 05:26:00 AM 47.2189 -1.5371 115° Southeast  Level FlightAware Approximate
Fri 05:27:00 AM 47.1569 -1.3394 115° Southeast  Level FlightAware Approximate
Fri 05:28:00 AM 47.0946 -1.1421 115° Southeast  Level FlightAware Approximate
Fri 05:29:00 AM 47.0320 -0.9453 115° Southeast  Level FlightAware Approximate
Fri 05:30:00 AM 46.9690 -0.7490 115° Southeast  Level FlightAware Approximate
Fri 05:31:00 AM 46.9057 -0.5531 115° Southeast  Level FlightAware Approximate
Fri 05:32:00 AM 46.8420 -0.3577 115° Southeast  Level FlightAware Approximate
Fri 05:33:00 AM 46.7780 -0.1628 116° Southeast  Level FlightAware Approximate
Fri 05:34:00 AM 46.7137 0.0317 116° Southeast  Level FlightAware Approximate
Fri 05:35:00 AM 46.6491 0.2257 116° Southeast  Level FlightAware Approximate
Fri 05:36:00 AM 46.5841 0.4193 116° Southeast  Level FlightAware Approximate
Fri 05:37:00 AM 46.5188 0.6123 116° Southeast  Level FlightAware Approximate
Fri 05:38:00 AM 46.4532 0.8049 116° Southeast  Level FlightAware Approximate
Fri 05:39:00 AM 46.3873 0.9971 116° Southeast  Level FlightAware Approximate
Fri 05:40:00 AM 46.3210 1.1888 117° Southeast  Level FlightAware Approximate
Fri 05:41:00 AM 46.2544 1.3800 117° Southeast  Level FlightAware Approximate
Fri 05:42:00 AM 46.1875 1.5708 117° Southeast  Level FlightAware Approximate
Fri 05:43:00 AM 46.1203 1.7611 117° Southeast  Level FlightAware Approximate
Fri 05:44:00 AM 46.0528 1.9509 117° Southeast  Level FlightAware Approximate
Fri 05:45:00 AM 45.9850 2.1402 117° Southeast  Level FlightAware Approximate
Fri 05:46:00 AM 45.9168 2.3291 117° Southeast  Level FlightAware Approximate
Fri 05:47:00 AM 45.8483 2.5176 117° Southeast  Level FlightAware Approximate
Fri 05:48:00 AM 45.7796 2.7055 118° Southeast  Level FlightAware Approximate
Fri 05:49:00 AM 45.7105 2.8931 118° Southeast  Level FlightAware Approximate
Fri 05:50:00 AM 45.6411 3.0801 118° Southeast  Level FlightAware Approximate
Fri 05:51:00 AM 45.5714 3.2667 118° Southeast  Level FlightAware Approximate
Fri 05:52:00 AM 45.5014 3.4528 118° Southeast  Level FlightAware Approximate
Fri 05:53:00 AM 45.4311 3.6384 118° Southeast  Level FlightAware Approximate
Fri 05:54:00 AM 45.3605 3.8236 118° Southeast  Level FlightAware Approximate
Fri 05:55:00 AM 45.2896 4.0084 119° Southeast  Level FlightAware Approximate
Fri 05:56:00 AM 45.2184 4.1926 119° Southeast  Level FlightAware Approximate
Fri 05:57:00 AM 45.1469 4.3764 119° Southeast  Level FlightAware Approximate
Fri 05:58:00 AM 45.0752 4.5598 119° Southeast  Level FlightAware Approximate
Fri 05:59:00 AM 45.0031 4.7426 119° Southeast  Level FlightAware Approximate
Fri 06:00:00 AM 44.9307 4.9251 119° Southeast  Level FlightAware Approximate
Fri 06:01:00 AM 44.8581 5.1070 119° Southeast  Level FlightAware Approximate
Fri 06:02:00 AM 44.7851 5.2885 119° Southeast  Level FlightAware Approximate
Fri 06:03:00 AM 44.7118 5.4695 120° Southeast  Level FlightAware Approximate
Fri 06:04:00 AM 44.6380 5.6498 120° Southeast  Level FlightAware Approximate
Fri 06:05:00 AM 44.5639 5.8297 120° Southeast  Level FlightAware Approximate
Fri 06:06:00 AM 44.4895 6.0091 120° Southeast  Level FlightAware Approximate
Fri 06:07:00 AM 44.4148 6.1880 120° Southeast  Level FlightAware Approximate
Fri 06:08:00 AM 44.3398 6.3665 120° Southeast  Level FlightAware Approximate
Fri 06:09:00 AM 44.2646 6.5446 120° Southeast  Level FlightAware Approximate
Fri 06:10:00 AM 44.1891 6.7221 121° Southeast  Level FlightAware Approximate
Fri 06:11:00 AM 44.1133 6.8993 121° Southeast  Level FlightAware Approximate
Fri 06:12:00 AM 44.0373 7.0759 121° Southeast  Level FlightAware Approximate
Fri 06:13:00 AM 43.9609 7.2522 121° Southeast  Level FlightAware Approximate
Fri 06:14:00 AM 43.8843 7.4279 121° Southeast  Level FlightAware Approximate
Fri 06:15:00 AM 43.8074 7.6032 121° Southeast  Level FlightAware Approximate
Fri 06:16:00 AM 43.7303 7.7781 121° Southeast  Level FlightAware Approximate
Fri 06:17:00 AM 43.6529 7.9525 121° Southeast  Level FlightAware Approximate
Fri 06:18:00 AM 43.5753 8.1265 122° Southeast  Level FlightAware Approximate
Fri 06:19:00 AM 43.4973 8.3000 122° Southeast  Level FlightAware Approximate
Fri 06:20:00 AM 43.4191 8.4730 122° Southeast  Level FlightAware Approximate
Fri 06:21:00 AM 43.3407 8.6456 122° Southeast  Level FlightAware Approximate
Fri 06:22:00 AM 43.2620 8.8178 122° Southeast  Level FlightAware Approximate
Fri 06:23:00 AM 43.1830 8.9895 122° Southeast  Level FlightAware Approximate
Fri 06:24:00 AM 43.1038 9.1608 122° Southeast  Level FlightAware Approximate
Fri 06:25:00 AM 43.0243 9.3317 122° Southeast  Level FlightAware Approximate
Fri 06:26:00 AM 42.9446 9.5021 123° Southeast  Level FlightAware Approximate
Fri 06:27:00 AM 42.8646 9.6720 123° Southeast  Level FlightAware Approximate
Fri 06:28:00 AM 42.7844 9.8415 123° Southeast  Level FlightAware Approximate
Fri 06:29:00 AM 42.7039 10.0106 123° Southeast  Level FlightAware Approximate
Fri 06:30:00 AM 42.6232 10.1792 123° Southeast  Level FlightAware Approximate
Fri 06:31:00 AM 42.5422 10.3474 123° Southeast  Level FlightAware Approximate
Fri 06:32:00 AM 42.4610 10.5152 123° Southeast  Level FlightAware Approximate
Fri 06:33:00 AM 42.3795 10.6825 123° Southeast  Level FlightAware Approximate
Fri 06:34:00 AM 42.2978 10.8494 123° Southeast  Level FlightAware Approximate
Fri 06:35:00 AM 42.2159 11.0159 124° Southeast  Level FlightAware Approximate
Fri 06:36:00 AM 42.1337 11.1819 124° Southeast  Level FlightAware Approximate
Fri 06:37:00 AM 42.0512 11.3475 124° Southeast  Level FlightAware Approximate
Fri 06:38:00 AM 41.9572 11.5003 134° Southeast  Level FlightAware Approximate
Fri 06:39:00 AM 41.8549 11.6439 134° Southeast  Level FlightAware Approximate
Fri 06:40:00 AM 41.7523 11.7870 134° Southeast  Level FlightAware Approximate
Fri 06:41:00 AM 41.6496 11.9297 134° Southeast  Level FlightAware Approximate
Fri 06:42:00 AM 41.5467 12.0718 134° Southeast  Level FlightAware Approximate
Fri 06:43:00 AM 41.4436 12.2136 134° Southeast  Level FlightAware Approximate
Fri 06:44:00 AM 41.3404 12.3549 134° Southeast  Level FlightAware Approximate
Fri 06:45:00 AM 41.2370 12.4957 134° Southeast  Level FlightAware Approximate
Fri 06:46:00 AM 41.1334 12.6361 134° Southeast  Level FlightAware Approximate
Fri 06:47:00 AM 41.0296 12.7761 134° Southeast  Level FlightAware Approximate
Fri 06:48:00 AM 40.9257 12.9156 135° Southeast  Level FlightAware Approximate
Fri 06:49:00 AM 40.8670 13.0907 107° East  Level FlightAware Approximate
Fri 06:50:00 AM 40.8229 13.2774 107° East  Level FlightAware Approximate
Fri 06:51:00 AM 40.7785 13.4639 107° East  Level FlightAware Approximate
Fri 06:52:00 AM 40.7338 13.6501 108° East  Level FlightAware Approximate
Fri 06:53:00 AM 40.6888 13.8361 108° East  Level FlightAware Approximate
Fri 06:54:00 AM 40.6435 14.0218 108° East  Level FlightAware Approximate
Fri 06:55:00 AM 40.5979 14.2072 108° East  Level FlightAware Approximate
Fri 06:56:00 AM 40.5485 14.3907 113° Southeast  Level FlightAware Approximate
Fri 06:57:00 AM 40.4914 14.5703 113° Southeast  Level FlightAware Approximate
Fri 06:58:00 AM 40.4340 14.7495 113° Southeast  Level FlightAware Approximate
Fri 06:59:00 AM 40.3763 14.9285 113° Southeast  Level FlightAware Approximate
Fri 07:00:00 AM 40.3184 15.1071 113° Southeast  Level FlightAware Approximate
Fri 07:01:00 AM 40.2602 15.2855 113° Southeast  Level FlightAware Approximate
Fri 07:02:00 AM 40.2017 15.4635 113° Southeast  Level FlightAware Approximate
Fri 07:03:00 AM 40.1429 15.6412 113° Southeast  Level FlightAware Approximate
Fri 07:04:00 AM 40.0839 15.8186 113° Southeast  Level FlightAware Approximate
Fri 07:05:00 AM 40.0245 15.9957 114° Southeast  Level FlightAware Approximate
Fri 07:06:00 AM 39.9650 16.1725 114° Southeast  Level FlightAware Approximate
Fri 07:07:00 AM 39.9051 16.3490 114° Southeast  Level FlightAware Approximate
Fri 07:08:00 AM 39.8450 16.5252 114° Southeast  Level FlightAware Approximate
Fri 07:09:00 AM 39.7846 16.7011 114° Southeast  Level FlightAware Approximate
Fri 07:10:00 AM 39.7240 16.8766 114° Southeast  Level FlightAware Approximate
Fri 07:11:00 AM 39.6631 17.0519 114° Southeast  Level FlightAware Approximate
Fri 07:12:00 AM 39.6019 17.2268 114° Southeast  Level FlightAware Approximate
Fri 07:13:00 AM 39.5405 17.4014 114° Southeast  Level FlightAware Approximate
Fri 07:14:00 AM 39.4788 17.5758 115° Southeast  Level FlightAware Approximate
Fri 07:15:00 AM 39.4168 17.7498 115° Southeast  Level FlightAware Approximate
Fri 07:16:00 AM 39.3546 17.9235 115° Southeast  Level FlightAware Approximate
Fri 07:17:00 AM 39.2922 18.0969 115° Southeast  Level FlightAware Approximate
Fri 07:18:00 AM 39.2294 18.2699 115° Southeast  Level FlightAware Approximate
Fri 07:19:00 AM 39.1665 18.4427 115° Southeast  Level FlightAware Approximate
Fri 07:20:00 AM 39.1032 18.6152 115° Southeast  Level FlightAware Approximate
Fri 07:21:00 AM 39.0397 18.7873 115° Southeast  Level FlightAware Approximate
Fri 07:22:00 AM 38.9760 18.9592 115° Southeast  Level FlightAware Approximate
Fri 07:23:00 AM 38.9120 19.1307 116° Southeast  Level FlightAware Approximate
Fri 07:24:00 AM 38.8478 19.3020 116° Southeast  Level FlightAware Approximate
Fri 07:25:00 AM 38.7833 19.4729 116° Southeast  Level FlightAware Approximate
Fri 07:26:00 AM 38.7185 19.6435 116° Southeast  Level FlightAware Approximate
Fri 07:27:00 AM 38.6535 19.8138 116° Southeast  Level FlightAware Approximate
Fri 07:28:00 AM 38.5883 19.9838 116° Southeast  Level FlightAware Approximate
Fri 07:29:00 AM 38.5228 20.1535 116° Southeast  Level FlightAware Approximate
Fri 07:30:00 AM 38.4571 20.3228 116° Southeast  Level FlightAware Approximate
Fri 07:31:00 AM 38.3911 20.4919 116° Southeast  Level FlightAware Approximate
Fri 07:32:00 AM 38.3249 20.6606 117° Southeast  Level FlightAware Approximate
Fri 07:33:00 AM 38.2585 20.8291 117° Southeast  Level FlightAware Approximate
Fri 07:34:00 AM 38.1918 20.9972 117° Southeast  Level FlightAware Approximate
Fri 07:35:00 AM 38.1249 21.1651 117° Southeast  Level FlightAware Approximate
Fri 07:36:00 AM 38.0577 21.3326 117° Southeast  Level FlightAware Approximate
Fri 07:37:00 AM 37.9903 21.4998 117° Southeast  Level FlightAware Approximate
Fri 07:38:00 AM 37.9226 21.6667 117° Southeast  Level FlightAware Approximate
Fri 07:39:00 AM 37.8548 21.8333 117° Southeast  Level FlightAware Approximate
Fri 07:40:00 AM 37.7866 21.9996 117° Southeast  Level FlightAware Approximate
Fri 07:41:00 AM 37.7183 22.1656 117° Southeast  Level FlightAware Approximate
Fri 07:42:00 AM 37.6497 22.3312 118° Southeast  Level FlightAware Approximate
Fri 07:43:00 AM 37.5809 22.4966 118° Southeast  Level FlightAware Approximate
Fri 07:44:00 AM 37.5119 22.6617 118° Southeast  Level FlightAware Approximate
Fri 07:45:00 AM 37.4426 22.8264 118° Southeast  Level FlightAware Approximate
Fri 07:46:00 AM 37.3731 22.9909 118° Southeast  Level FlightAware Approximate
Fri 07:47:00 AM 37.3034 23.1550 118° Southeast  Level FlightAware Approximate
Fri 07:48:00 AM 37.2334 23.3189 118° Southeast  Level FlightAware Approximate
Fri 07:49:00 AM 37.1632 23.4824 118° Southeast  Level FlightAware Approximate
Fri 07:50:00 AM 37.0928 23.6456 118° Southeast  Level FlightAware Approximate
Fri 07:51:00 AM 37.0222 23.8086 118° Southeast  Level FlightAware Approximate
Fri 07:52:00 AM 36.9514 23.9712 119° Southeast  Level FlightAware Approximate
Fri 07:53:00 AM 36.8803 24.1335 119° Southeast  Level FlightAware Approximate
Fri 07:54:00 AM 36.8090 24.2955 119° Southeast  Level FlightAware Approximate
Fri 07:55:00 AM 36.7375 24.4573 119° Southeast  Level FlightAware Approximate
Fri 07:56:00 AM 36.6736 24.6237 115° Southeast  Level FlightAware Approximate
Fri 07:57:00 AM 36.6099 24.7901 115° Southeast  Level FlightAware Approximate
Fri 07:58:00 AM 36.5459 24.9563 116° Southeast  Level FlightAware Approximate
Fri 07:59:00 AM 36.4818 25.1222 116° Southeast  Level FlightAware Approximate
Fri 08:00:00 AM 36.4174 25.2878 116° Southeast  Level FlightAware Approximate
Fri 08:01:00 AM 36.3528 25.4532 116° Southeast  Level FlightAware Approximate
Fri 08:02:00 AM 36.2879 25.6182 116° Southeast  Level FlightAware Approximate
Fri 08:03:00 AM 36.2229 25.7830 116° Southeast  Level FlightAware Approximate
Fri 08:04:00 AM 36.1576 25.9476 116° Southeast  Level FlightAware Approximate
Fri 08:05:00 AM 36.0920 26.1118 116° Southeast  Level FlightAware Approximate
Fri 08:06:00 AM 36.0263 26.2758 116° Southeast  Level FlightAware Approximate
Fri 08:07:00 AM 35.9603 26.4395 116° Southeast  Level FlightAware Approximate
Fri 08:08:00 AM 35.8941 26.6029 117° Southeast  Level FlightAware Approximate
Fri 08:09:00 AM 35.8277 26.7661 117° Southeast  Level FlightAware Approximate
Fri 08:10:00 AM 35.7611 26.9290 117° Southeast  Level FlightAware Approximate
Fri 08:11:00 AM 35.6942 27.0916 117° Southeast  Level FlightAware Approximate
Fri 08:12:00 AM 35.6272 27.2539 117° Southeast  Level FlightAware Approximate
Fri 08:13:00 AM 35.5599 27.4160 117° Southeast  Level FlightAware Approximate
Fri 08:14:00 AM 35.4924 27.5778 117° Southeast  Level FlightAware Approximate
Fri 08:15:00 AM 35.4247 27.7393 117° Southeast  Level FlightAware Approximate
Fri 08:16:00 AM 35.3568 27.9005 117° Southeast  Level FlightAware Approximate
Fri 08:17:00 AM 35.2886 28.0615 117° Southeast  Level FlightAware Approximate
Fri 08:18:00 AM 35.2202 28.2222 117° Southeast  Level FlightAware Approximate
Fri 08:19:00 AM 35.1517 28.3826 118° Southeast  Level FlightAware Approximate
Fri 08:20:00 AM 35.0829 28.5428 118° Southeast  Level FlightAware Approximate
Fri 08:21:00 AM 35.0139 28.7027 118° Southeast  Level FlightAware Approximate
Fri 08:22:00 AM 34.9447 28.8623 118° Southeast  Level FlightAware Approximate
Fri 08:23:00 AM 34.8753 29.0217 118° Southeast  Level FlightAware Approximate
Fri 08:24:00 AM 34.8057 29.1807 118° Southeast  Level FlightAware Approximate
Fri 08:25:00 AM 34.7359 29.3396 118° Southeast  Level FlightAware Approximate
Fri 08:26:00 AM 34.6658 29.4981 118° Southeast  Level FlightAware Approximate
Fri 08:27:00 AM 34.5956 29.6564 118° Southeast  Level FlightAware Approximate
Fri 08:28:00 AM 34.5252 29.8144 118° Southeast  Level FlightAware Approximate
Fri 08:29:00 AM 34.4545 29.9721 118° Southeast  Level FlightAware Approximate
Fri 08:30:00 AM 34.3837 30.1296 119° Southeast  Level FlightAware Approximate
Fri 08:31:00 AM 34.3126 30.2868 119° Southeast  Level FlightAware Approximate
Fri 08:32:00 AM 34.2414 30.4438 119° Southeast  Level FlightAware Approximate
Fri 08:33:00 AM 34.1700 30.6005 119° Southeast  Level FlightAware Approximate
Fri 08:34:00 AM 34.0983 30.7569 119° Southeast  Level FlightAware Approximate
Fri 08:35:00 AM 34.0265 30.9130 119° Southeast  Level FlightAware Approximate
Fri 08:36:00 AM 33.9544 31.0689 119° Southeast  Level FlightAware Approximate
Fri 08:37:00 AM 33.8822 31.2245 119° Southeast  Level FlightAware Approximate
Fri 08:38:00 AM 33.8098 31.3799 119° Southeast  Level FlightAware Approximate
Fri 08:39:00 AM 33.7372 31.5350 119° Southeast  Level FlightAware Approximate
Fri 08:40:00 AM 33.6643 31.6898 119° Southeast  Level FlightAware Approximate
Fri 08:41:00 AM 33.5913 31.8444 120° Southeast  Level FlightAware Approximate
Fri 08:42:00 AM 33.5181 31.9986 120° Southeast  Level FlightAware Approximate
Fri 08:43:00 AM 33.4447 32.1527 120° Southeast  Level FlightAware Approximate
Fri 08:44:00 AM 33.3712 32.3065 120° Southeast  Level FlightAware Approximate
Fri 08:45:00 AM 33.2974 32.4600 120° Southeast  Level FlightAware Approximate
Fri 08:46:00 AM 33.2234 32.6133 120° Southeast  Level FlightAware Approximate
Fri 08:47:00 AM 33.1493 32.7663 120° Southeast  Level FlightAware Approximate
Fri 08:48:00 AM 33.0742 32.9185 121° Southeast  Level FlightAware Approximate
Fri 08:49:00 AM 32.9983 33.0700 121° Southeast  Level FlightAware Approximate
Fri 08:50:00 AM 32.9226 33.2216 121° Southeast  Level FlightAware Approximate
Fri 08:51:00 AM 32.8469 33.3729 121° Southeast  Level FlightAware Approximate
Fri 08:52:00 AM 32.7713 33.5243 121° Southeast  Level FlightAware Approximate
Fri 08:53:00 AM 32.6958 33.6755 120° Southeast  Level FlightAware Approximate
Fri 08:54:00 AM 32.6225 33.8283 120° Southeast  Level FlightAware Approximate
Fri 08:55:00 AM 32.5491 33.9807 120° Southeast  Level FlightAware Approximate
Fri 08:56:00 AM 32.4775 34.1341 112° Southeast  Level FlightAware Approximate
Fri 08:57:00 AM 32.3835 34.2665 135° Southeast  Level FlightAware Approximate
Fri 08:58:00 AM 32.2853 34.3975 132° Southeast  Level FlightAware Approximate
Fri 08:59:00 AM 32.1919 34.5330 126° Southeast  Level FlightAware Approximate
Fri 09:00:00 AM 32.1012 34.6702 125° Southeast  Level FlightAware Approximate
Fri 09:01:00 AM 32.0275 34.8209 125° Southeast  Level FlightAware Approximate
Fri 09:02:00 AM 32.0000 34.8667 125° Southeast  Level FlightAware Approximate
Fri 09:03:00 AM 32.0095 34.8769 125° Southeast  Level Estimated
Fri 09:04:00 AM 32.0095 34.8769 125° Southeast  Level Estimated
Fri 09:05:00 AM 32.0095 34.8769 125° Southeast  Level Estimated
Fri 09:06:00 AM 32.0095 34.8769 125° Southeast  Level Estimated
Fri 09:07:00 AM 32.0095 34.8769 125° Southeast  Level Estimated
Fri 09:08:00 AM 32.0095 34.8769 125° Southeast  Level Estimated
Fri 09:09:00 AM 32.0095 34.8769 125° Southeast  Level Estimated
Fri 09:10:00 AM 32.0095 34.8769 125° Southeast  Level Estimated
Fri 09:11:00 AM 32.0095 34.8769 125° Southeast  Level Estimated
Fri 09:12:00 AM 32.0095 34.8769 125° Southeast  Level Estimated
Fri 09:13:00 AM 32.0095 34.8769 125° Southeast  Level Estimated
Fri 09:14:00 AM 32.0095 34.8769 125° Southeast  Level Estimated
Fri 09:15:00 AM 32.0095 34.8769 125° Southeast  Level Estimated
Fri 09:16:00 AM 32.0095 34.8769 125° Southeast  Level Estimated
Fri 09:17:00 AM 32.0095 34.8769 125° Southeast  Level Estimated
Fri 09:18:00 AM 32.0095 34.8769 125° Southeast  Level Estimated
Fri 09:19:00 AM 32.0095 34.8769 125° Southeast  Level Estimated
Fri 09:20:00 AM 32.0095 34.8769 125° Southeast  Level Estimated
Fri 09:20:24 AM 32.2790 34.4030 125° Southeast 301 346 7,700  Level FlightAware ADS-B
Fri 09:21:23 AM 32.2250 34.4660 135° Southeast 293 337 7,200 -1,056 Descending FlightAware ADS-B
Fri 09:22:29 AM 32.1770 34.5630 120° Southeast 276 318 5,500 -1,313 Descending FlightAware ADS-B
Fri 09:22:59 AM 32.1590 34.5990 121° Southeast 269 310 5,100 -500 Descending FlightAware ADS-B
Fri 09:23:29 AM 32.1370 34.6380 124° Southeast 254 292 5,000 -102 Descending FlightAware ADS-B
Fri 09:23:58 AM 32.1200 34.6690 123° Southeast 254 292 5,000  Level FlightAware ADS-B
Fri 09:24:22 AM 32.1040 34.6970 124° Southeast 253 291 5,000  Level FlightAware ADS-B
Fri 09:27:00 AM 32.0000 34.8667 125° Southeast  Level FlightAware Approximate

Login

Don't have an account? Register now (free) for customized features, flight alerts, and more!